createdAt,value
2022-12-11T00:00:49.798Z,27.50
2022-12-11T00:03:17.880Z,25.10
2022-12-11T00:05:46.120Z,23.50
2022-12-11T00:08:14.062Z,24.40
2022-12-11T00:10:48.949Z,26.90
2022-12-11T00:13:15.720Z,22.30
2022-12-11T00:15:42.393Z,23.20
2022-12-11T00:18:13.899Z,24.00
2022-12-11T00:20:41.079Z,24.70
2022-12-11T00:23:07.796Z,25.20
2022-12-11T00:25:34.583Z,24.50
2022-12-11T00:28:01.307Z,23.40
2022-12-11T00:30:27.993Z,24.60
2022-12-11T00:32:54.690Z,22.20
2022-12-11T00:35:21.510Z,21.20
2022-12-11T00:37:48.254Z,18.00
2022-12-11T00:40:15.066Z,16.50
2022-12-11T00:42:41.760Z,16.90
2022-12-11T00:45:10.161Z,19.10
2022-12-11T00:47:37.138Z,18.30
2022-12-11T00:50:04.355Z,19.90
2022-12-11T00:52:31.096Z,18.00
2022-12-11T00:54:57.786Z,21.00
2022-12-11T00:57:24.603Z,22.30
2022-12-11T00:59:51.392Z,20.90
2022-12-11T01:02:18.103Z,19.80
2022-12-11T01:04:44.848Z,22.00
2022-12-11T01:07:11.555Z,20.40
2022-12-11T01:09:57.050Z,20.70
2022-12-11T01:12:24.011Z,21.80
2022-12-11T01:14:51.218Z,22.30
2022-12-11T01:17:17.948Z,21.70
2022-12-11T01:19:44.717Z,22.70
2022-12-11T01:22:11.596Z,21.20
2022-12-11T01:24:38.287Z,24.70
2022-12-11T01:27:05.112Z,20.70
2022-12-11T01:29:32.484Z,20.90
2022-12-11T01:31:59.173Z,18.80
2022-12-11T01:34:25.893Z,23.40
2022-12-11T01:36:52.864Z,25.30
2022-12-11T01:39:19.616Z,18.70
2022-12-11T01:41:46.316Z,17.30
2022-12-11T01:44:16.006Z,20.60
2022-12-11T01:46:43.543Z,18.30
2022-12-11T01:49:16.019Z,15.10
2022-12-11T01:51:56.572Z,14.10
2022-12-11T01:54:24.815Z,17.20
2022-12-11T01:56:57.268Z,20.50
2022-12-11T01:59:28.434Z,23.40
2022-12-11T02:02:15.495Z,20.70
2022-12-11T02:04:43.514Z,19.30
2022-12-11T02:07:10.615Z,19.80
2022-12-11T02:09:40.294Z,16.00
2022-12-11T02:12:32.051Z,16.60
2022-12-11T02:15:31.777Z,18.70
2022-12-11T02:18:20.485Z,18.80
2022-12-11T02:21:14.038Z,20.00
2022-12-11T02:24:11.921Z,21.30
2022-12-11T02:27:18.600Z,18.10
2022-12-11T02:30:05.121Z,21.20
2022-12-11T02:32:46.858Z,19.10
2022-12-11T02:35:25.906Z,19.30
2022-12-11T02:38:04.258Z,15.50
2022-12-11T02:40:33.173Z,17.00
2022-12-11T02:43:05.077Z,18.90
2022-12-11T02:45:33.973Z,19.40
2022-12-11T02:48:04.125Z,21.40
2022-12-11T02:50:31.391Z,16.80
2022-12-11T02:53:00.840Z,21.50
2022-12-11T02:55:28.432Z,22.10
2022-12-11T02:58:22.857Z,23.80
2022-12-11T03:00:50.011Z,24.80
2022-12-11T03:03:16.857Z,25.30
2022-12-11T03:05:44.108Z,22.20
2022-12-11T03:08:11.370Z,16.00
2022-12-11T03:10:38.469Z,17.80
2022-12-11T03:13:05.360Z,21.90
2022-12-11T03:15:56.395Z,17.80
2022-12-11T03:18:58.205Z,15.60
2022-12-11T03:21:38.644Z,18.00
2022-12-11T03:24:14.462Z,21.00
2022-12-11T03:26:46.722Z,24.60
2022-12-11T03:29:21.917Z,23.00
2022-12-11T03:32:01.523Z,23.80
2022-12-11T03:34:36.692Z,22.30
2022-12-11T03:37:05.425Z,23.50
2022-12-11T03:39:38.009Z,18.40
2022-12-11T03:42:10.322Z,24.50
2022-12-11T03:44:37.878Z,19.00
2022-12-11T03:47:08.417Z,19.50
2022-12-11T03:49:40.248Z,23.20
2022-12-11T03:52:08.731Z,23.50
2022-12-11T03:54:35.811Z,17.90
2022-12-11T03:57:04.927Z,20.40
2022-12-11T03:59:31.666Z,19.00
2022-12-11T04:01:58.765Z,14.40
2022-12-11T04:04:25.719Z,13.70
2022-12-11T04:06:52.639Z,18.70
2022-12-11T04:09:19.384Z,21.00
2022-12-11T04:11:46.204Z,22.70
2022-12-11T04:14:33.073Z,21.30
2022-12-11T04:17:01.158Z,22.90
2022-12-11T04:19:47.123Z,20.80
2022-12-11T04:22:34.871Z,19.80
2022-12-11T04:25:04.945Z,22.60
2022-12-11T04:27:49.906Z,23.20
2022-12-11T04:30:29.317Z,17.70
2022-12-11T04:32:59.143Z,19.80
2022-12-11T04:35:26.083Z,20.80
2022-12-11T04:37:52.992Z,18.70
2022-12-11T04:40:20.438Z,22.60
2022-12-11T04:42:48.195Z,22.50
2022-12-11T04:45:15.537Z,18.90
2022-12-11T04:47:42.770Z,22.00
2022-12-11T04:50:12.398Z,18.70
2022-12-11T04:52:39.196Z,15.70
2022-12-11T04:55:07.344Z,20.70
2022-12-11T04:57:34.607Z,20.30
2022-12-11T05:00:02.045Z,23.30
2022-12-11T05:02:28.780Z,19.10
2022-12-11T05:04:55.519Z,19.10
2022-12-11T05:07:22.206Z,21.80
2022-12-11T05:09:49.058Z,27.40
2022-12-11T05:12:15.760Z,21.80
2022-12-11T05:14:42.446Z,25.00
2022-12-11T05:17:09.198Z,22.50
2022-12-11T05:19:35.953Z,19.40
2022-12-11T05:22:02.658Z,25.20
2022-12-11T05:24:29.362Z,18.60
2022-12-11T05:26:56.232Z,22.60
2022-12-11T05:29:22.968Z,24.30
2022-12-11T05:31:49.639Z,20.10
2022-12-11T05:34:16.385Z,18.00
2022-12-11T05:36:43.058Z,20.30
2022-12-11T05:39:12.238Z,19.70
2022-12-11T05:41:39.024Z,20.50
2022-12-11T05:44:05.841Z,13.30
2022-12-11T05:46:32.603Z,18.50
2022-12-11T05:49:01.768Z,16.00
2022-12-11T05:51:29.508Z,20.70
2022-12-11T05:53:57.608Z,20.90
2022-12-11T05:56:32.256Z,19.80
2022-12-11T05:59:00.701Z,18.70
2022-12-11T06:01:37.915Z,21.50
2022-12-11T06:04:06.847Z,20.00
2022-12-11T06:06:34.222Z,20.50
2022-12-11T06:09:01.456Z,20.30
2022-12-11T06:11:30.560Z,19.10
2022-12-11T06:13:57.712Z,22.20
2022-12-11T06:16:25.300Z,17.80
2022-12-11T06:18:57.004Z,13.40
2022-12-11T06:21:33.648Z,22.50
2022-12-11T06:24:03.441Z,18.30
2022-12-11T06:26:30.374Z,14.90
2022-12-11T06:28:57.162Z,18.20
2022-12-11T06:31:24.122Z,17.70
2022-12-11T06:33:50.999Z,19.30
2022-12-11T06:36:21.646Z,18.30
2022-12-11T06:38:49.284Z,15.40
2022-12-11T06:41:16.720Z,15.10
2022-12-11T06:43:44.194Z,17.40
2022-12-11T06:46:14.858Z,16.90
2022-12-11T06:48:43.051Z,18.90
2022-12-11T06:51:14.194Z,21.70
2022-12-11T06:53:41.691Z,18.90
2022-12-11T06:56:12.624Z,18.60
2022-12-11T06:58:40.729Z,18.50
2022-12-11T07:01:36.905Z,15.80
2022-12-11T07:04:03.645Z,18.10
2022-12-11T07:06:30.394Z,16.70
2022-12-11T07:08:57.141Z,16.00
2022-12-11T07:11:25.051Z,18.00
2022-12-11T07:13:51.780Z,24.30
2022-12-11T07:16:18.983Z,21.00
2022-12-11T07:18:51.050Z,21.60
2022-12-11T07:21:19.271Z,22.70
2022-12-11T07:23:46.796Z,22.30
2022-12-11T07:26:16.962Z,18.60
2022-12-11T07:28:44.252Z,22.20
2022-12-11T07:31:15.487Z,20.50
2022-12-11T07:33:44.133Z,15.40
2022-12-11T07:36:13.145Z,23.50
2022-12-11T07:38:40.957Z,18.60
2022-12-11T07:41:12.332Z,20.50
2022-12-11T07:43:39.795Z,27.90
2022-12-11T07:46:14.542Z,25.80
2022-12-11T07:48:43.787Z,21.30
2022-12-11T07:51:35.601Z,24.30
2022-12-11T07:54:12.043Z,25.80
2022-12-11T07:56:41.847Z,18.00
2022-12-11T07:59:10.950Z,20.00
2022-12-11T08:01:39.805Z,21.90
2022-12-11T08:04:09.434Z,19.80
2022-12-11T08:06:39.439Z,19.70
2022-12-11T08:09:09.383Z,14.60
2022-12-11T08:11:36.423Z,15.60
2022-12-11T08:14:03.632Z,15.20
2022-12-11T08:16:30.362Z,14.70
2022-12-11T08:18:58.473Z,21.00
2022-12-11T08:21:27.484Z,16.10
2022-12-11T08:23:55.293Z,14.50
2022-12-11T08:26:29.833Z,21.90
2022-12-11T08:28:57.210Z,15.80
2022-12-11T08:31:24.917Z,19.20
2022-12-11T08:33:52.506Z,20.50
2022-12-11T08:36:21.819Z,19.40
2022-12-11T08:38:50.398Z,19.30
2022-12-11T08:41:23.792Z,23.10
2022-12-11T08:43:54.924Z,19.30
2022-12-11T08:46:24.494Z,19.60
2022-12-11T08:48:52.164Z,21.50
2022-12-11T08:51:22.902Z,18.80
2022-12-11T08:53:51.261Z,19.20
2022-12-11T08:56:20.643Z,23.00
2022-12-11T08:58:48.012Z,20.00
2022-12-11T09:01:25.417Z,22.20
2022-12-11T09:03:54.492Z,19.70
2022-12-11T09:06:24.820Z,20.90
2022-12-11T09:08:53.711Z,22.10
2022-12-11T09:11:24.818Z,20.30
2022-12-11T09:13:52.754Z,19.00
2022-12-11T09:16:23.421Z,14.70
2022-12-11T09:18:53.655Z,13.20
2022-12-11T09:21:24.627Z,17.00
2022-12-11T09:23:57.873Z,14.60
2022-12-11T09:26:25.299Z,18.80
2022-12-11T09:28:53.359Z,18.10
2022-12-11T09:31:31.241Z,17.10
2022-12-11T09:34:11.852Z,25.10
2022-12-11T09:36:40.094Z,20.30
2022-12-11T09:39:08.669Z,18.10
2022-12-11T09:41:53.485Z,16.00
2022-12-11T09:44:30.466Z,17.10
2022-12-11T09:46:58.679Z,17.90
2022-12-11T09:49:31.878Z,20.50
2022-12-11T09:52:21.307Z,17.20
2022-12-11T09:54:58.435Z,17.80
2022-12-11T09:57:53.192Z,14.50
2022-12-11T10:00:53.342Z,16.10
2022-12-11T10:03:51.791Z,15.20
2022-12-11T10:06:36.420Z,16.60
2022-12-11T10:09:22.047Z,18.90
2022-12-11T10:12:15.292Z,15.10
2022-12-11T10:15:07.015Z,18.70
2022-12-11T10:17:37.292Z,18.10
2022-12-11T10:20:39.314Z,20.50
2022-12-11T10:23:10.324Z,15.40
2022-12-11T10:26:04.337Z,19.40
2022-12-11T10:28:31.131Z,15.40
2022-12-11T10:31:20.849Z,18.60
2022-12-11T10:34:04.150Z,16.40
2022-12-11T10:36:37.653Z,18.00
2022-12-11T10:39:17.325Z,16.20
2022-12-11T10:41:47.406Z,20.20
2022-12-11T10:44:25.661Z,24.10
2022-12-11T10:47:06.062Z,21.00
2022-12-11T10:49:36.581Z,19.70
2022-12-11T10:52:20.425Z,15.70
2022-12-11T10:54:56.053Z,17.00
2022-12-11T10:57:30.435Z,17.00
2022-12-11T10:59:59.331Z,17.40
2022-12-11T11:02:36.442Z,21.60
2022-12-11T11:05:34.636Z,17.10
2022-12-11T11:08:20.408Z,23.00
2022-12-11T11:10:57.658Z,16.10
2022-12-11T11:13:28.842Z,18.30
2022-12-11T11:16:01.743Z,20.80
2022-12-11T11:18:30.679Z,20.70
2022-12-11T11:20:58.318Z,16.00
2022-12-11T11:23:25.847Z,23.10
2022-12-11T11:26:01.843Z,18.40
2022-12-11T11:28:36.989Z,17.10
2022-12-11T11:31:10.509Z,21.90
2022-12-11T11:33:55.072Z,20.90
2022-12-11T11:36:26.148Z,19.30
2022-12-11T11:39:32.367Z,16.70
2022-12-11T11:42:10.526Z,22.60
2022-12-11T11:44:44.790Z,18.40
2022-12-11T11:47:24.980Z,17.70
2022-12-11T11:50:18.479Z,47.60
2022-12-11T11:53:12.394Z,22.00
2022-12-11T11:55:55.813Z,15.80
2022-12-11T11:59:00.104Z,17.20
2022-12-11T12:01:27.187Z,24.60
2022-12-11T12:03:54.268Z,24.50
2022-12-11T12:06:50.895Z,23.00
2022-12-11T12:09:43.605Z,26.80
2022-12-11T12:12:50.682Z,30.20
2022-12-11T12:15:31.012Z,25.40
2022-12-11T12:18:13.212Z,42.70
2022-12-11T12:21:00.256Z,26.80
2022-12-11T12:24:06.724Z,24.30
2022-12-11T12:26:37.634Z,23.30
2022-12-11T12:29:32.242Z,26.40
2022-12-11T12:32:31.770Z,26.30
2022-12-11T12:35:10.503Z,29.50
2022-12-11T12:38:04.975Z,26.40
2022-12-11T12:41:15.690Z,30.20
2022-12-11T12:44:05.487Z,25.70
2022-12-11T12:46:37.844Z,21.20
2022-12-11T12:49:11.333Z,22.50
2022-12-11T12:51:40.124Z,23.70
2022-12-11T12:54:12.461Z,26.80
2022-12-11T12:56:40.763Z,26.50
2022-12-11T12:59:26.667Z,28.50
2022-12-11T13:02:04.472Z,25.80
2022-12-11T13:04:58.634Z,26.30
2022-12-11T13:07:31.680Z,27.40
2022-12-11T13:10:32.316Z,25.30
2022-12-11T13:13:00.441Z,24.60
2022-12-11T13:15:45.015Z,28.50
2022-12-11T13:18:34.053Z,26.90
2022-12-11T13:21:03.172Z,20.00
2022-12-11T13:23:35.014Z,29.60
2022-12-11T13:26:04.534Z,26.30
2022-12-11T13:28:51.202Z,27.80
2022-12-11T13:31:17.909Z,16.00
2022-12-11T13:33:51.659Z,25.80
2022-12-11T13:36:24.099Z,21.90
2022-12-11T13:38:57.529Z,23.00
2022-12-11T13:41:24.881Z,25.20
2022-12-11T13:43:53.511Z,23.60
2022-12-11T13:46:29.537Z,19.60
2022-12-11T13:49:03.509Z,21.80
2022-12-11T13:51:32.381Z,19.50
2022-12-11T13:54:16.994Z,28.30
2022-12-11T13:57:20.996Z,25.00
2022-12-11T13:59:53.355Z,24.00
2022-12-11T14:02:49.222Z,24.00
2022-12-11T14:05:16.742Z,19.70
2022-12-11T14:07:49.488Z,25.90
2022-12-11T14:10:24.472Z,16.70
2022-12-11T14:13:00.822Z,31.00
2022-12-11T14:15:30.425Z,26.60
2022-12-11T14:17:59.391Z,24.60
2022-12-11T14:20:29.882Z,15.30
2022-12-11T14:23:21.071Z,21.10
2022-12-11T14:25:57.072Z,25.40
2022-12-11T14:28:27.854Z,29.70
2022-12-11T14:30:59.285Z,26.30
2022-12-11T14:33:32.851Z,25.50
2022-12-11T14:36:01.343Z,29.10
2022-12-11T14:38:43.638Z,37.30
2022-12-11T14:41:20.275Z,28.60
2022-12-11T14:43:52.489Z,33.60
2022-12-11T14:46:30.175Z,31.70
2022-12-11T14:49:12.556Z,29.30
2022-12-11T14:51:41.090Z,30.80
2022-12-11T14:54:27.372Z,26.30
2022-12-11T14:56:54.701Z,27.70
2022-12-11T14:59:31.438Z,20.60
2022-12-11T15:02:21.816Z,36.10
2022-12-11T15:05:20.327Z,43.50
2022-12-11T15:07:55.868Z,42.90
2022-12-11T15:10:26.613Z,44.00
2022-12-11T15:12:54.820Z,31.60
2022-12-11T15:15:21.817Z,37.00
2022-12-11T15:17:52.816Z,22.60
2022-12-11T15:20:29.612Z,25.80
2022-12-11T15:23:01.563Z,32.00
2022-12-11T15:25:30.892Z,34.00
2022-12-11T15:28:01.347Z,26.30
2022-12-11T15:30:32.816Z,32.00
2022-12-11T15:33:09.184Z,34.10
2022-12-11T15:35:39.380Z,30.80
2022-12-11T15:38:06.667Z,37.30
2022-12-11T15:40:33.395Z,33.70
2022-12-11T15:43:02.314Z,33.80
2022-12-11T15:45:29.310Z,28.20
2022-12-11T15:47:57.483Z,28.80
2022-12-11T15:50:27.187Z,25.00
2022-12-11T15:52:56.043Z,29.50
2022-12-11T15:55:26.805Z,20.20
2022-12-11T15:57:58.332Z,30.90
2022-12-11T16:00:27.086Z,30.10
2022-12-11T16:02:54.769Z,25.40
2022-12-11T16:05:21.882Z,21.90
2022-12-11T16:07:52.288Z,24.40
2022-12-11T16:10:20.746Z,32.10
2022-12-11T16:12:47.758Z,22.20
2022-12-11T16:15:21.690Z,30.20
2022-12-11T16:17:50.040Z,24.00
2022-12-11T16:20:17.574Z,22.60
2022-12-11T16:22:44.725Z,33.00
2022-12-11T16:25:12.332Z,30.20
2022-12-11T16:27:39.182Z,36.70
2022-12-11T16:30:06.801Z,36.20
2022-12-11T16:32:33.980Z,34.00
2022-12-11T16:35:01.216Z,34.60
2022-12-11T16:37:28.289Z,38.70
2022-12-11T16:39:55.158Z,30.30
2022-12-11T16:42:21.879Z,37.40
2022-12-11T16:44:49.220Z,41.60
2022-12-11T16:47:16.118Z,35.70
2022-12-11T16:49:43.393Z,42.00
2022-12-11T16:52:10.759Z,37.40
2022-12-11T16:54:37.568Z,41.40
2022-12-11T16:57:04.949Z,37.00
2022-12-11T16:59:36.817Z,38.80
2022-12-11T17:02:05.031Z,43.30
2022-12-11T17:04:32.100Z,42.00
2022-12-11T17:06:58.861Z,48.30
2022-12-11T17:09:25.564Z,45.80
2022-12-11T17:11:53.459Z,40.10
2022-12-11T17:14:20.437Z,41.80
2022-12-11T17:16:48.143Z,33.40
2022-12-11T17:19:16.622Z,35.60
2022-12-11T17:21:48.449Z,37.80
2022-12-11T17:24:18.094Z,40.80
2022-12-11T17:26:44.774Z,46.00
2022-12-11T17:29:12.914Z,42.10
2022-12-11T17:31:40.564Z,29.20
2022-12-11T17:34:07.648Z,24.20
2022-12-11T17:36:34.418Z,29.40
2022-12-11T17:39:01.162Z,33.00
2022-12-11T17:41:27.893Z,29.50
2022-12-11T17:43:55.606Z,31.20
2022-12-11T17:46:22.591Z,32.50
2022-12-11T17:48:49.674Z,37.40
2022-12-11T17:51:23.951Z,28.20
2022-12-11T17:53:52.731Z,32.90
2022-12-11T17:56:19.866Z,38.10
2022-12-11T17:58:46.638Z,40.10
2022-12-11T18:01:13.870Z,47.70
2022-12-11T18:03:41.666Z,38.10
2022-12-11T18:06:13.375Z,46.10
2022-12-11T18:08:41.187Z,38.90
2022-12-11T18:11:12.952Z,43.00
2022-12-11T18:13:39.779Z,46.30
2022-12-11T18:16:12.784Z,45.50
2022-12-11T18:18:40.278Z,40.30
2022-12-11T18:21:07.510Z,43.30
2022-12-11T18:23:34.573Z,39.50
2022-12-11T18:26:01.464Z,43.30
2022-12-11T18:28:30.316Z,44.00
2022-12-11T18:31:02.651Z,39.20
2022-12-11T18:33:30.753Z,41.10
2022-12-11T18:35:57.950Z,44.10
2022-12-11T18:38:24.809Z,45.40
2022-12-11T18:40:51.578Z,49.30
2022-12-11T18:43:18.322Z,40.40
2022-12-11T18:45:45.662Z,41.30
2022-12-11T18:48:14.504Z,35.50
2022-12-11T18:50:45.755Z,39.70
2022-12-11T18:53:12.811Z,42.60
2022-12-11T18:55:48.803Z,40.50
2022-12-11T18:58:18.544Z,41.60
2022-12-11T19:00:46.132Z,39.50
2022-12-11T19:03:14.138Z,43.60
2022-12-11T19:05:43.812Z,40.50
2022-12-11T19:08:14.347Z,45.20
2022-12-11T19:10:44.205Z,36.00
2022-12-11T19:13:12.344Z,40.70
2022-12-11T19:15:44.153Z,39.60
2022-12-11T19:18:11.743Z,38.90
2022-12-11T19:20:49.277Z,41.60
2022-12-11T19:23:17.237Z,34.90
2022-12-11T19:25:47.253Z,29.80
2022-12-11T19:28:15.280Z,32.50
2022-12-11T19:30:48.814Z,33.30
2022-12-11T19:33:16.569Z,34.80
2022-12-11T19:35:44.032Z,30.30
2022-12-11T19:38:12.782Z,29.00
2022-12-11T19:40:44.617Z,32.40
2022-12-11T19:43:11.392Z,28.70
2022-12-11T19:45:38.436Z,29.80
2022-12-11T19:48:06.214Z,33.70
2022-12-11T19:50:36.362Z,29.70
2022-12-11T19:53:04.241Z,26.20
2022-12-11T19:55:31.017Z,27.10
2022-12-11T19:57:57.975Z,28.90
2022-12-11T20:00:24.846Z,32.20
2022-12-11T20:02:51.933Z,28.40
2022-12-11T20:05:18.924Z,28.00
2022-12-11T20:07:45.960Z,29.70
2022-12-11T20:10:12.949Z,35.40
2022-12-11T20:12:39.738Z,28.70
2022-12-11T20:15:07.156Z,28.80
2022-12-11T20:17:33.912Z,37.10
2022-12-11T20:20:00.792Z,32.40
2022-12-11T20:22:27.685Z,39.50
2022-12-11T20:24:54.423Z,44.90
2022-12-11T20:27:21.164Z,46.40
2022-12-11T20:29:47.975Z,44.50
2022-12-11T20:32:14.803Z,42.50
2022-12-11T20:34:41.584Z,39.80
2022-12-11T20:37:08.291Z,34.60
2022-12-11T20:39:35.671Z,37.20
2022-12-11T20:42:04.935Z,36.40
2022-12-11T20:44:32.277Z,38.10
2022-12-11T20:46:59.135Z,34.50
2022-12-11T20:49:26.380Z,35.00
2022-12-11T20:51:53.211Z,43.60
2022-12-11T20:54:19.928Z,34.50
2022-12-11T20:56:46.651Z,35.00
2022-12-11T20:59:13.538Z,33.00
2022-12-11T21:01:40.404Z,39.90
2022-12-11T21:04:07.172Z,35.20
2022-12-11T21:06:36.250Z,36.90
2022-12-11T21:09:25.183Z,38.00
2022-12-11T21:11:52.585Z,30.60
2022-12-11T21:14:20.091Z,36.90
2022-12-11T21:16:47.498Z,35.50
2022-12-11T21:19:20.160Z,34.20
2022-12-11T21:21:47.290Z,38.00
2022-12-11T21:24:22.234Z,35.50
2022-12-11T21:26:49.832Z,34.60
2022-12-11T21:29:17.439Z,30.70
2022-12-11T21:31:44.665Z,30.20
2022-12-11T21:34:11.527Z,28.20
2022-12-11T21:36:38.298Z,28.80
2022-12-11T21:39:05.436Z,30.60
2022-12-11T21:41:32.979Z,32.30
2022-12-11T21:45:25.879Z,32.40
2022-12-11T21:46:46.920Z,29.90
2022-12-11T21:49:14.646Z,31.50
2022-12-11T21:51:46.897Z,28.00
2022-12-11T21:54:18.347Z,35.50
2022-12-11T21:56:45.872Z,28.10
2022-12-11T21:59:13.675Z,29.40
2022-12-11T22:01:45.860Z,34.30
2022-12-11T22:04:14.867Z,37.80
2022-12-11T22:06:43.429Z,32.50
2022-12-11T22:09:12.613Z,30.00
2022-12-11T22:11:41.408Z,29.70
2022-12-11T22:14:13.602Z,28.50
2022-12-11T22:16:40.406Z,31.30
2022-12-11T22:19:07.217Z,30.60
2022-12-11T22:21:33.981Z,29.30
2022-12-11T22:24:01.081Z,18.20
2022-12-11T22:26:28.851Z,32.20
2022-12-11T22:28:57.054Z,30.20
2022-12-11T22:31:27.245Z,33.70
2022-12-11T22:33:55.001Z,32.50
2022-12-11T22:36:27.256Z,32.60
2022-12-11T22:38:54.651Z,34.90
2022-12-11T22:41:33.135Z,32.90
2022-12-11T22:44:00.770Z,33.70
2022-12-11T22:46:30.189Z,28.50
2022-12-11T22:48:58.907Z,36.30
2022-12-11T22:51:25.774Z,30.60
2022-12-11T22:53:52.449Z,36.00
2022-12-11T22:56:19.255Z,33.10
2022-12-11T22:58:46.080Z,32.40
2022-12-11T23:01:25.496Z,28.30
2022-12-11T23:03:52.714Z,34.60
2022-12-11T23:06:23.026Z,35.10
2022-12-11T23:08:49.970Z,31.40
2022-12-11T23:11:25.782Z,30.90
2022-12-11T23:13:54.068Z,28.30
2022-12-11T23:16:23.098Z,32.70
2022-12-11T23:18:50.480Z,24.30
2022-12-11T23:21:17.610Z,37.10
2022-12-11T23:23:45.050Z,29.60
2022-12-11T23:26:13.494Z,32.40
2022-12-11T23:28:41.534Z,14.80
2022-12-11T23:31:09.175Z,29.60
2022-12-11T23:33:36.309Z,31.90
2022-12-11T23:36:04.311Z,31.90
2022-12-11T23:38:32.054Z,30.80
2022-12-11T23:41:03.411Z,34.10
2022-12-11T23:43:30.292Z,31.30
2022-12-11T23:45:57.842Z,30.50
2022-12-11T23:48:24.894Z,26.40
2022-12-11T23:50:51.939Z,35.00
2022-12-11T23:53:18.677Z,31.80
2022-12-11T23:55:46.424Z,26.70
2022-12-11T23:58:13.478Z,31.70
